Gu Achi, Arizona
Current Conditions -  °F | °C
As of 7:48 PM on Tuesday 27 Jan 2015 (Local Time) from KRYN Reporting Station
Clear Clear  
Wind Chill: 61°   Ceiling: Unl
Heat Index: 61°   Visibility: 10mi
Dew Point: 50°   Wind: 8mph
Humidity: 68%   Direction: 260°W
Pressure: 30.19"   Gusts: NA
Location:  32.0925°N, 112.129°W
Report Text: KRYN 280248Z 26007KT 10SM CLR 16/10 A3019
Loading
Personal Weather Stations






























Interactive Weather Map New forecast layout! Learn more

10-Day Weather Forecast

Advertisements
Track Severe Weather on mobile